TAF KTOP
KTOP 090520Z 0906/1006 16009KT P6SM BKN150 WS015/19045KT FM091200 25006KT P6SM SCT200 FM091600 31013KT P6SM FEW250=
METAR KTOP
WC KTOP
WS KTOP
WV KTOP